Time;durP1;ratioP1;P1;durP2;ratioP2;P2;SDS_P1;SDS_P2;PMS_P1;PMS_P2;Temp;Humidity;BMP_temperature;BMP_pressure;BME280_temperature;BME280_humidity;BME280_pressure;Samples;Min_cycle;Max_cycle;Signal;HPM_P1;HPM_P2
2022/07/02 00:00:03;;;;;;;0.63;0.60;;;;;;;;;;5018495;28;20247;-61
2022/07/02 00:02:34;;;;;;;1.27;0.70;;;;;;;;;;5015370;28;20260;-60
2022/07/02 00:05:04;;;;;;;0.50;0.50;;;;;;;;;;4998542;28;20229;-60
2022/07/02 00:07:32;;;;;;;2.00;1.80;;;;;;;;;;4998519;28;20205;-60
2022/07/02 00:10:00;;;;;;;4.53;2.40;;;;;;;;;;4998764;28;20260;-60
2022/07/02 00:12:29;;;;;;;5.63;1.70;;;;;;;;;;4998534;28;20209;-60
2022/07/02 00:14:58;;;;;;;2.17;1.10;;;;;;;;;;4998464;28;20299;-60
2022/07/02 00:17:26;;;;;;;1.50;0.70;;;;;;;;;;4998305;28;20213;-59
2022/07/02 00:19:56;;;;;;;1.77;1.30;;;;;;;;;;4998435;28;20208;-59
2022/07/02 00:22:24;;;;;;;2.30;1.00;;;;;;;;;;4998470;28;20220;-59
2022/07/02 00:24:52;;;;;;;0.67;0.67;;;;;;;;;;5007503;28;20241;-60
2022/07/02 00:27:20;;;;;;;1.10;0.93;;;;;;;;;;4996999;28;20255;-59
2022/07/02 00:29:51;;;;;;;4.23;1.07;;;;;;;;;;5012562;28;20267;-60
2022/07/02 00:32:19;;;;;;;2.73;0.80;;;;;;;;;;5017893;28;20207;-60
2022/07/02 00:34:47;;;;;;;2.57;1.10;;;;;;;;;;5021194;28;20228;-60
2022/07/02 00:37:16;;;;;;;0.77;0.63;;;;;;;;;;4998242;28;20573;-60
2022/07/02 00:39:44;;;;;;;0.57;0.57;;;;;;;;;;4998038;28;20240;-60
2022/07/02 00:42:12;;;;;;;1.27;0.67;;;;;;;;;;4998288;28;20216;-60
2022/07/02 00:44:41;;;;;;;1.33;0.60;;;;;;;;;;5006073;28;20221;-60
2022/07/02 00:47:10;;;;;;;3.63;0.50;;;;;;;;;;5005714;28;20545;-59
2022/07/02 00:49:38;;;;;;;1.57;0.70;;;;;;;;;;5013016;28;20228;-60
2022/07/02 00:52:07;;;;;;;3.63;0.90;;;;;;;;;;5014424;28;20227;-60
2022/07/02 00:54:36;;;;;;;1.60;0.53;;;;;;;;;;4999937;28;20228;-60
2022/07/02 00:57:05;;;;;;;0.67;0.60;;;;;;;;;;5000072;28;20209;-60
2022/07/02 00:59:34;;;;;;;0.40;0.40;;;;;;;;;;4996495;28;20264;-60
2022/07/02 01:02:03;;;;;;;2.40;0.67;;;;;;;;;;5009343;28;20204;-60
2022/07/02 01:04:33;;;;;;;3.63;0.80;;;;;;;;;;5002150;28;20216;-59
2022/07/02 01:07:03;;;;;;;0.50;0.50;;;;;;;;;;5012375;28;20204;-59
2022/07/02 01:12:22;;;;;;;0.77;0.77;;;;;;;;;;5000809;28;20243;-59
2022/07/02 01:14:50;;;;;;;1.37;0.73;;;;;;;;;;5001807;28;20224;-60
2022/07/02 01:17:18;;;;;;;1.73;0.90;;;;;;;;;;5001623;28;20213;-59
2022/07/02 01:19:46;;;;;;;1.17;0.57;;;;;;;;;;5002031;28;20275;-60
2022/07/02 01:22:17;;;;;;;0.73;0.73;;;;;;;;;;5008604;28;20244;-60
2022/07/02 01:24:45;;;;;;;1.53;0.70;;;;;;;;;;5010451;28;20264;-60
2022/07/02 01:27:13;;;;;;;1.13;0.60;;;;;;;;;;5007811;28;20246;-60
2022/07/02 01:29:41;;;;;;;0.87;0.50;;;;;;;;;;5013174;28;20228;-60
2022/07/02 01:32:10;;;;;;;0.63;0.40;;;;;;;;;;5001449;28;20209;-60
2022/07/02 01:34:39;;;;;;;3.63;0.80;;;;;;;;;;5001935;28;20304;-60
2022/07/02 01:37:09;;;;;;;0.90;0.50;;;;;;;;;;5001547;28;20216;-60
2022/07/02 01:39:38;;;;;;;0.93;0.60;;;;;;;;;;5001546;28;20213;-60
2022/07/02 01:42:07;;;;;;;4.97;0.50;;;;;;;;;;5001458;28;20213;-60
2022/07/02 01:44:35;;;;;;;0.63;0.60;;;;;;;;;;5001344;28;20229;-60
2022/07/02 01:47:05;;;;;;;0.60;0.47;;;;;;;;;;5000920;28;20283;-60
2022/07/02 01:49:33;;;;;;;3.30;0.60;;;;;;;;;;5001031;28;20225;-60
2022/07/02 01:52:02;;;;;;;0.63;0.40;;;;;;;;;;5001285;28;20213;-60
2022/07/02 01:54:30;;;;;;;2.00;0.80;;;;;;;;;;5000941;28;20233;-60
2022/07/02 01:57:01;;;;;;;1.03;0.60;;;;;;;;;;5007632;28;20579;-60
2022/07/02 01:59:29;;;;;;;2.93;0.60;;;;;;;;;;5020519;28;20235;-60
2022/07/02 02:01:57;;;;;;;0.73;0.70;;;;;;;;;;5020420;28;20230;-60
2022/07/02 02:04:25;;;;;;;1.13;0.50;;;;;;;;;;5020617;28;20232;-60
2022/07/02 02:06:53;;;;;;;0.80;0.50;;;;;;;;;;5020382;28;20240;-60
2022/07/02 02:09:21;;;;;;;0.47;0.47;;;;;;;;;;5020286;28;20730;-60
2022/07/02 02:11:49;;;;;;;0.80;0.63;;;;;;;;;;5020261;28;20208;-60
2022/07/02 02:14:18;;;;;;;1.77;0.90;;;;;;;;;;5020420;28;20275;-60
2022/07/02 02:16:46;;;;;;;2.37;1.03;;;;;;;;;;5020073;28;20644;-60
2022/07/02 02:19:14;;;;;;;2.87;0.80;;;;;;;;;;5020364;28;20208;-60
2022/07/02 02:21:43;;;;;;;0.97;0.63;;;;;;;;;;5020436;28;20239;-60
2022/07/02 02:24:10;;;;;;;0.73;0.60;;;;;;;;;;5025343;28;20271;-59
2022/07/02 02:26:38;;;;;;;0.70;0.43;;;;;;;;;;5002103;28;20247;-60
2022/07/02 02:29:06;;;;;;;1.27;0.60;;;;;;;;;;5016231;28;20255;-60
2022/07/02 02:31:36;;;;;;;0.50;0.50;;;;;;;;;;4999995;28;20275;-60
2022/07/02 02:34:04;;;;;;;0.90;0.90;;;;;;;;;;5001201;28;20252;-60
2022/07/02 02:36:32;;;;;;;1.07;0.87;;;;;;;;;;5000545;28;20217;-59
2022/07/02 02:39:00;;;;;;;1.07;0.93;;;;;;;;;;5000170;28;20240;-59
2022/07/02 02:41:28;;;;;;;0.80;0.70;;;;;;;;;;5000038;28;20711;-59
2022/07/02 02:43:56;;;;;;;3.43;0.90;;;;;;;;;;5000422;28;20260;-59
2022/07/02 02:46:24;;;;;;;1.50;0.60;;;;;;;;;;5000173;28;20216;-59
2022/07/02 02:48:53;;;;;;;4.00;0.80;;;;;;;;;;5000273;28;20208;-59
2022/07/02 02:51:21;;;;;;;1.30;1.00;;;;;;;;;;5000302;28;20267;-59
2022/07/02 02:53:49;;;;;;;1.60;1.07;;;;;;;;;;5000024;28;20662;-59
2022/07/02 02:56:17;;;;;;;1.27;0.90;;;;;;;;;;4999751;28;20255;-61
2022/07/02 02:58:45;;;;;;;1.30;0.93;;;;;;;;;;5006446;28;20264;-59
2022/07/02 03:01:13;;;;;;;2.30;1.03;;;;;;;;;;5019440;28;20236;-59
2022/07/02 03:03:41;;;;;;;1.33;0.93;;;;;;;;;;5019634;28;20224;-59
2022/07/02 03:06:11;;;;;;;1.10;0.90;;;;;;;;;;5019750;28;20240;-59
2022/07/02 03:08:39;;;;;;;2.00;0.83;;;;;;;;;;5019714;28;20247;-60
2022/07/02 03:11:07;;;;;;;0.60;0.57;;;;;;;;;;5019315;28;20267;-60
2022/07/02 03:13:35;;;;;;;2.67;0.93;;;;;;;;;;5019245;28;20227;-60
2022/07/02 03:16:03;;;;;;;1.80;0.80;;;;;;;;;;5019177;28;20209;-60
2022/07/02 03:18:31;;;;;;;1.00;0.90;;;;;;;;;;5019102;28;20236;-60
2022/07/02 03:20:59;;;;;;;0.93;0.93;;;;;;;;;;5019148;28;20204;-59
2022/07/02 03:23:28;;;;;;;1.23;1.13;;;;;;;;;;5025525;28;20666;-60
2022/07/02 03:25:56;;;;;;;1.53;1.00;;;;;;;;;;5004650;28;20589;-60
2022/07/02 03:28:24;;;;;;;3.10;0.77;;;;;;;;;;5015212;28;20662;-59
2022/07/02 03:30:52;;;;;;;2.03;0.70;;;;;;;;;;5000060;28;20264;-59
2022/07/02 03:33:20;;;;;;;1.97;1.03;;;;;;;;;;4999301;28;20233;-59
2022/07/02 03:35:48;;;;;;;2.87;0.97;;;;;;;;;;5000238;28;20244;-60
2022/07/02 03:38:16;;;;;;;1.83;1.30;;;;;;;;;;4999558;28;20301;-60
2022/07/02 03:40:45;;;;;;;2.17;1.07;;;;;;;;;;4999284;28;20209;-60
2022/07/02 03:43:13;;;;;;;0.80;0.80;;;;;;;;;;4998895;28;20251;-60
2022/07/02 03:45:41;;;;;;;3.17;1.10;;;;;;;;;;4999080;28;20251;-59
2022/07/02 03:48:09;;;;;;;2.17;1.07;;;;;;;;;;4998956;28;20247;-60
2022/07/02 03:50:38;;;;;;;2.43;0.90;;;;;;;;;;5005527;28;20895;-60
2022/07/02 03:53:06;;;;;;;1.80;1.00;;;;;;;;;;5018568;28;20286;-60
2022/07/02 03:55:34;;;;;;;1.50;0.90;;;;;;;;;;5018711;28;20204;-60
2022/07/02 03:58:03;;;;;;;1.00;0.80;;;;;;;;;;5018356;28;20719;-60
2022/07/02 04:00:31;;;;;;;1.03;0.93;;;;;;;;;;5018245;28;20258;-58
2022/07/02 04:02:59;;;;;;;2.87;1.20;;;;;;;;;;5018577;28;20212;-58
2022/07/02 04:05:27;;;;;;;2.80;1.17;;;;;;;;;;5018361;28;20215;-58
2022/07/02 04:07:55;;;;;;;1.50;1.40;;;;;;;;;;5018464;28;20239;-57
2022/07/02 04:10:23;;;;;;;2.80;1.63;;;;;;;;;;5017105;28;20246;-58
2022/07/02 04:12:51;;;;;;;3.30;1.80;;;;;;;;;;5015227;28;20236;-57
2022/07/02 04:15:21;;;;;;;5.00;2.03;;;;;;;;;;4998578;28;20247;-58
2022/07/02 04:17:49;;;;;;;5.33;2.37;;;;;;;;;;4998188;28;20714;-58
2022/07/02 04:20:17;;;;;;;5.43;2.40;;;;;;;;;;4998579;28;20244;-58
2022/07/02 04:22:45;;;;;;;4.40;1.83;;;;;;;;;;4999958;28;20681;-57
2022/07/02 04:25:13;;;;;;;3.67;2.37;;;;;;;;;;5015997;28;20580;-57
2022/07/02 04:27:41;;;;;;;3.77;1.40;;;;;;;;;;5008459;28;20197;-58
2022/07/02 04:30:10;;;;;;;3.20;1.40;;;;;;;;;;5005113;28;20636;-58
2022/07/02 04:32:39;;;;;;;3.80;1.70;;;;;;;;;;5008331;28;20860;-58
2022/07/02 04:35:07;;;;;;;5.03;1.87;;;;;;;;;;5018974;28;20212;-57
2022/07/02 04:37:35;;;;;;;2.87;1.80;;;;;;;;;;4998266;28;20263;-57
2022/07/02 04:40:04;;;;;;;8.43;1.90;;;;;;;;;;5004807;28;20247;-59
2022/07/02 04:42:32;;;;;;;13.17;2.73;;;;;;;;;;5016653;28;20652;-62
2022/07/02 04:45:00;;;;;;;11.00;4.70;;;;;;;;;;5017599;28;20298;-62
2022/07/02 04:47:28;;;;;;;3.40;1.97;;;;;;;;;;5017627;28;20216;-61
2022/07/02 04:49:57;;;;;;;1.00;0.97;;;;;;;;;;5017747;28;20671;-62
2022/07/02 04:52:25;;;;;;;1.77;0.90;;;;;;;;;;5017701;28;20232;-62
2022/07/02 04:54:53;;;;;;;2.07;0.80;;;;;;;;;;5017661;28;20251;-62
2022/07/02 04:57:21;;;;;;;2.90;0.80;;;;;;;;;;5017261;28;20239;-63
2022/07/02 04:59:49;;;;;;;2.70;0.80;;;;;;;;;;5017549;28;20258;-62
2022/07/02 05:02:17;;;;;;;0.70;0.70;;;;;;;;;;5015411;28;20850;-62
2022/07/02 05:04:45;;;;;;;5.10;1.27;;;;;;;;;;5015955;28;20291;-62
2022/07/02 05:07:15;;;;;;;1.27;0.80;;;;;;;;;;5015886;28;20212;-62
2022/07/02 05:09:49;;;;;;;2.87;0.80;;;;;;;;;;5015933;28;20222;-62
2022/07/02 05:12:17;;;;;;;5.60;1.37;;;;;;;;;;5015561;28;20259;-62
2022/07/02 05:14:45;;;;;;;2.77;0.90;;;;;;;;;;5015377;28;20263;-59
2022/07/02 05:17:13;;;;;;;1.53;0.90;;;;;;;;;;5017641;28;20212;-59
2022/07/02 05:19:41;;;;;;;2.97;0.90;;;;;;;;;;5017734;28;20262;-59
2022/07/02 05:22:09;;;;;;;0.97;0.70;;;;;;;;;;5017821;28;20208;-59
2022/07/02 05:24:39;;;;;;;2.17;1.00;;;;;;;;;;5006439;28;20723;-59
2022/07/02 05:27:07;;;;;;;1.47;1.37;;;;;;;;;;5003194;28;20208;-59
2022/07/02 05:29:35;;;;;;;1.27;1.07;;;;;;;;;;5009877;28;20240;-61
2022/07/02 05:32:03;;;;;;;6.83;1.10;;;;;;;;;;4997225;28;20595;-59
2022/07/02 05:34:31;;;;;;;1.00;0.90;;;;;;;;;;4999034;28;20216;-59
2022/07/02 05:36:59;;;;;;;1.47;0.87;;;;;;;;;;4997830;28;20240;-60
2022/07/02 05:39:27;;;;;;;2.40;0.70;;;;;;;;;;4997658;28;20232;-61
2022/07/02 05:41:57;;;;;;;1.53;0.60;;;;;;;;;;4997385;28;20209;-61
2022/07/02 05:44:24;;;;;;;1.57;0.80;;;;;;;;;;4997792;28;20267;-61
2022/07/02 05:46:52;;;;;;;2.10;0.57;;;;;;;;;;4997463;28;20240;-61
2022/07/02 05:49:20;;;;;;;0.67;0.60;;;;;;;;;;4997705;28;20221;-61
2022/07/02 05:51:48;;;;;;;2.00;0.80;;;;;;;;;;4997578;28;20236;-61
2022/07/02 05:54:16;;;;;;;2.17;0.67;;;;;;;;;;4999030;28;20228;-61
2022/07/02 05:56:44;;;;;;;1.07;0.60;;;;;;;;;;5001091;28;20217;-61
2022/07/02 05:59:14;;;;;;;1.67;0.80;;;;;;;;;;5001073;28;20251;-61
2022/07/02 06:01:42;;;;;;;2.10;0.70;;;;;;;;;;5000628;28;20688;-59
2022/07/02 06:04:10;;;;;;;3.13;0.90;;;;;;;;;;5001311;28;20228;-61
2022/07/02 06:09:24;;;;;;;2.57;0.70;;;;;;;;;;5001059;28;20205;-61
2022/07/02 06:11:52;;;;;;;1.63;0.50;;;;;;;;;;5000643;28;20264;-61
2022/07/02 06:14:21;;;;;;;0.93;0.73;;;;;;;;;;5000646;28;20237;-60
2022/07/02 06:16:49;;;;;;;4.77;0.73;;;;;;;;;;5000787;28;20209;-61
2022/07/02 06:19:17;;;;;;;2.87;0.50;;;;;;;;;;5000738;28;20213;-61
2022/07/02 06:21:45;;;;;;;1.77;0.60;;;;;;;;;;5000844;28;20208;-59
2022/07/02 06:24:13;;;;;;;0.70;0.60;;;;;;;;;;5019770;28;20256;-59
2022/07/02 06:26:41;;;;;;;0.50;0.50;;;;;;;;;;5002556;28;20268;-61
2022/07/02 06:29:09;;;;;;;4.53;0.60;;;;;;;;;;5016283;28;20201;-60
2022/07/02 06:31:38;;;;;;;2.23;0.60;;;;;;;;;;5000355;28;20252;-61
2022/07/02 06:34:06;;;;;;;1.53;0.70;;;;;;;;;;5001320;28;20232;-61
2022/07/02 06:36:34;;;;;;;3.60;0.57;;;;;;;;;;5000560;28;20245;-60
2022/07/02 06:39:02;;;;;;;1.20;0.53;;;;;;;;;;5000537;28;20217;-59
2022/07/02 06:44:18;;;;;;;0.70;0.50;;;;;;;;;;4999017;28;20260;-59
2022/07/02 06:46:47;;;;;;;2.67;0.50;;;;;;;;;;5019450;28;20246;-59
2022/07/02 06:49:16;;;;;;;1.43;0.77;;;;;;;;;;5019966;28;20243;-59
2022/07/02 06:51:44;;;;;;;0.60;0.60;;;;;;;;;;5019690;28;20239;-61
2022/07/02 06:54:12;;;;;;;1.50;0.50;;;;;;;;;;5019453;28;20235;-59
2022/07/02 06:56:40;;;;;;;0.60;0.60;;;;;;;;;;5019411;28;20219;-59
2022/07/02 06:59:08;;;;;;;0.60;0.60;;;;;;;;;;5019364;28;20268;-59
2022/07/02 07:01:36;;;;;;;1.17;0.70;;;;;;;;;;5019289;28;20232;-59
2022/07/02 07:04:23;;;;;;;2.10;0.60;;;;;;;;;;5019289;28;20596;-61
2022/07/02 07:06:52;;;;;;;0.50;0.40;;;;;;;;;;5018775;28;20239;-60
2022/07/02 07:09:20;;;;;;;2.50;0.73;;;;;;;;;;5019349;28;20265;-59
2022/07/02 07:11:47;;;;;;;0.67;0.43;;;;;;;;;;5019401;28;20244;-60
2022/07/02 07:14:15;;;;;;;1.10;0.67;;;;;;;;;;5019290;28;20228;-59
2022/07/02 07:16:43;;;;;;;0.53;0.33;;;;;;;;;;5019032;28;20212;-60
2022/07/02 07:19:12;;;;;;;1.50;1.40;;;;;;;;;;5018977;28;20611;-60
2022/07/02 07:21:44;;;;;;;1.73;0.70;;;;;;;;;;5019010;28;20212;-60
2022/07/02 07:24:12;;;;;;;1.67;0.90;;;;;;;;;;5026289;28;20731;-60
2022/07/02 07:26:40;;;;;;;0.77;0.70;;;;;;;;;;5026625;28;20383;-62
2022/07/02 07:29:08;;;;;;;2.23;0.80;;;;;;;;;;5023847;28;20649;-62
2022/07/02 07:31:36;;;;;;;1.50;0.57;;;;;;;;;;5023831;28;20232;-61
2022/07/02 07:34:05;;;;;;;0.90;0.60;;;;;;;;;;5023064;28;20235;-61
2022/07/02 07:36:34;;;;;;;1.77;0.60;;;;;;;;;;5027057;28;21078;-61
2022/07/02 07:39:03;;;;;;;3.23;0.70;;;;;;;;;;5023484;28;20203;-61
2022/07/02 07:41:32;;;;;;;0.70;0.70;;;;;;;;;;5025597;28;20197;-62
2022/07/02 07:44:00;;;;;;;1.50;0.83;;;;;;;;;;5020886;28;20229;-62
2022/07/02 07:46:29;;;;;;;3.10;0.83;;;;;;;;;;5022911;28;20268;-61
2022/07/02 07:48:58;;;;;;;1.57;0.77;;;;;;;;;;5027206;28;20206;-61
2022/07/02 07:51:26;;;;;;;1.60;0.60;;;;;;;;;;5026560;28;20610;-62
2022/07/02 07:53:54;;;;;;;1.17;0.70;;;;;;;;;;5023597;28;20244;-61
2022/07/02 07:56:24;;;;;;;1.60;1.00;;;;;;;;;;5024901;28;20722;-61
2022/07/02 07:58:52;;;;;;;2.20;0.57;;;;;;;;;;5025132;28;20237;-61
2022/07/02 08:01:20;;;;;;;0.83;0.60;;;;;;;;;;5024766;28;20202;-61
2022/07/02 08:03:48;;;;;;;1.80;0.83;;;;;;;;;;5026470;28;20231;-62
2022/07/02 08:06:16;;;;;;;1.10;0.70;;;;;;;;;;5022059;28;20242;-61
2022/07/02 08:08:44;;;;;;;5.03;0.83;;;;;;;;;;5024193;28;20208;-61
2022/07/02 08:11:12;;;;;;;1.03;0.50;;;;;;;;;;5016959;28;20204;-61
2022/07/02 08:13:42;;;;;;;1.70;0.70;;;;;;;;;;5026040;28;20226;-61
2022/07/02 08:16:09;;;;;;;2.77;0.87;;;;;;;;;;5017599;28;20209;-61
2022/07/02 08:18:38;;;;;;;1.23;0.73;;;;;;;;;;5027595;28;20211;-61
2022/07/02 08:21:06;;;;;;;1.37;0.70;;;;;;;;;;4998611;28;20674;-61
2022/07/02 08:23:33;;;;;;;1.20;0.60;;;;;;;;;;5013505;28;20258;-61
2022/07/02 08:26:01;;;;;;;2.03;0.60;;;;;;;;;;5001877;28;20263;-61
2022/07/02 08:28:30;;;;;;;0.50;0.50;;;;;;;;;;5014743;28;20238;-61
2022/07/02 08:31:00;;;;;;;1.90;0.60;;;;;;;;;;4999249;28;20233;-61
2022/07/02 08:33:29;;;;;;;1.30;0.83;;;;;;;;;;4999659;28;20260;-61
2022/07/02 08:35:56;;;;;;;1.77;0.73;;;;;;;;;;5015223;28;20269;-61
2022/07/02 08:38:24;;;;;;;2.87;0.90;;;;;;;;;;5000530;28;20241;-61
2022/07/02 08:40:52;;;;;;;1.07;0.60;;;;;;;;;;5018844;28;20246;-61
2022/07/02 08:43:23;;;;;;;1.70;0.70;;;;;;;;;;4999872;28;20227;-61
2022/07/02 08:45:52;;;;;;;1.70;0.90;;;;;;;;;;5018288;28;20199;-61
2022/07/02 08:48:23;;;;;;;1.50;0.63;;;;;;;;;;5026105;28;20688;-61
2022/07/02 08:50:52;;;;;;;0.77;0.77;;;;;;;;;;5010488;28;20240;-61
2022/07/02 08:53:20;;;;;;;1.40;1.10;;;;;;;;;;5009363;28;20677;-61
2022/07/02 08:55:50;;;;;;;1.20;0.93;;;;;;;;;;5021138;28;20216;-61
2022/07/02 08:58:18;;;;;;;2.40;1.07;;;;;;;;;;5009396;28;20269;-61
2022/07/02 09:00:47;;;;;;;3.23;1.00;;;;;;;;;;4997402;28;20240;-61
2022/07/02 09:03:19;;;;;;;0.83;0.70;;;;;;;;;;4996579;28;20641;-61
2022/07/02 09:05:50;;;;;;;2.23;0.90;;;;;;;;;;4995959;28;20213;-61
2022/07/02 09:08:18;;;;;;;1.67;1.03;;;;;;;;;;4996157;28;20233;-62
2022/07/02 09:10:48;;;;;;;3.77;2.83;;;;;;;;;;5000546;28;20213;-61
2022/07/02 09:13:18;;;;;;;1.90;1.20;;;;;;;;;;5018126;28;20326;-61
2022/07/02 09:15:47;;;;;;;1.83;1.00;;;;;;;;;;5024863;28;20200;-61
2022/07/02 09:18:15;;;;;;;2.17;1.20;;;;;;;;;;5025470;28;20598;-61
2022/07/02 09:20:43;;;;;;;4.00;1.00;;;;;;;;;;5024048;28;20228;-61
2022/07/02 09:23:20;;;;;;;1.93;0.80;;;;;;;;;;5026383;28;20248;-61
2022/07/02 09:25:48;;;;;;;1.53;0.90;;;;;;;;;;5020955;28;20201;-61
2022/07/02 09:28:17;;;;;;;0.90;0.90;;;;;;;;;;5024035;28;20209;-61
2022/07/02 09:30:45;;;;;;;1.70;1.13;;;;;;;;;;5025556;28;20202;-62
2022/07/02 09:33:31;;;;;;;0.97;0.90;;;;;;;;;;5026518;28;20286;-61
2022/07/02 09:36:00;;;;;;;1.53;0.90;;;;;;;;;;5027100;28;20195;-61
2022/07/02 09:38:30;;;;;;;2.00;0.80;;;;;;;;;;5029556;28;20257;-61
2022/07/02 09:41:00;;;;;;;0.80;0.80;;;;;;;;;;5026607;28;20241;-61
2022/07/02 09:43:29;;;;;;;2.50;0.90;;;;;;;;;;5025564;28;20315;-61
2022/07/02 09:45:59;;;;;;;1.20;1.10;;;;;;;;;;5026522;28;20201;-61
2022/07/02 09:48:27;;;;;;;1.43;0.80;;;;;;;;;;5030892;28;20226;-61
2022/07/02 09:50:56;;;;;;;4.40;0.97;;;;;;;;;;5030452;28;20239;-61
2022/07/02 09:53:24;;;;;;;2.37;0.93;;;;;;;;;;5026238;28;20252;-61
2022/07/02 09:55:53;;;;;;;0.80;0.80;;;;;;;;;;5027246;28;20239;-61
2022/07/02 09:58:26;;;;;;;0.70;0.70;;;;;;;;;;5021670;28;20663;-62
2022/07/02 10:00:54;;;;;;;2.03;1.10;;;;;;;;;;5027975;28;20256;-61
2022/07/02 10:03:22;;;;;;;2.20;1.00;;;;;;;;;;5029284;28;20225;-61
2022/07/02 10:05:52;;;;;;;0.97;0.77;;;;;;;;;;5027878;28;20723;-61
2022/07/02 10:08:20;;;;;;;2.33;1.13;;;;;;;;;;5023725;28;20228;-61
2022/07/02 10:10:49;;;;;;;0.90;0.83;;;;;;;;;;5024770;28;20607;-61
2022/07/02 10:13:19;;;;;;;1.27;1.17;;;;;;;;;;5025644;28;20565;-61
2022/07/02 10:15:52;;;;;;;2.93;1.03;;;;;;;;;;5027334;28;20280;-62
2022/07/02 10:18:20;;;;;;;0.90;0.77;;;;;;;;;;5015919;28;20206;-62
2022/07/02 10:20:49;;;;;;;0.90;0.60;;;;;;;;;;5018140;28;20233;-62
2022/07/02 10:23:18;;;;;;;1.70;1.30;;;;;;;;;;5030882;28;20257;-61
2022/07/02 10:25:47;;;;;;;2.10;0.80;;;;;;;;;;5022312;28;20660;-61
2022/07/02 10:28:15;;;;;;;1.13;0.70;;;;;;;;;;5023420;28;20269;-61
2022/07/02 10:30:45;;;;;;;1.87;0.87;;;;;;;;;;5003049;28;20207;-61
2022/07/02 10:33:20;;;;;;;1.47;1.00;;;;;;;;;;5000337;28;20235;-61
2022/07/02 10:35:49;;;;;;;1.60;0.90;;;;;;;;;;5007483;28;20217;-61
2022/07/02 10:38:27;;;;;;;1.83;1.00;;;;;;;;;;5018524;28;20233;-61
2022/07/02 10:40:55;;;;;;;0.73;0.73;;;;;;;;;;5018410;28;20553;-63
2022/07/02 10:43:23;;;;;;;0.80;0.80;;;;;;;;;;5019576;28;20252;-63
2022/07/02 10:46:01;;;;;;;0.97;0.60;;;;;;;;;;5019557;28;20214;-63
2022/07/02 10:48:29;;;;;;;3.27;1.10;;;;;;;;;;5019657;28;20209;-63
2022/07/02 10:50:58;;;;;;;0.80;0.80;;;;;;;;;;5019674;28;20208;-63
2022/07/02 10:53:28;;;;;;;3.77;2.17;;;;;;;;;;5008880;28;20254;-63
2022/07/02 10:56:02;;;;;;;0.87;0.80;;;;;;;;;;4999882;28;20686;-61
2022/07/02 10:58:37;;;;;;;1.77;0.70;;;;;;;;;;4999601;28;20249;-62
2022/07/02 11:01:10;;;;;;;0.80;0.80;;;;;;;;;;4999774;28;20238;-62
2022/07/02 11:03:38;;;;;;;1.07;1.00;;;;;;;;;;5006839;28;20229;-62
2022/07/02 11:06:08;;;;;;;2.20;0.97;;;;;;;;;;5015118;28;20623;-62
2022/07/02 11:08:46;;;;;;;0.83;0.70;;;;;;;;;;5011564;28;20259;-59
2022/07/02 11:11:16;;;;;;;0.83;0.77;;;;;;;;;;5018053;28;20209;-59
2022/07/02 11:13:46;;;;;;;1.57;0.70;;;;;;;;;;5009425;28;20229;-59
2022/07/02 11:16:20;;;;;;;2.27;1.00;;;;;;;;;;4999425;28;20233;-59
2022/07/02 11:18:49;;;;;;;1.37;1.27;;;;;;;;;;4999310;28;20579;-59
2022/07/02 11:21:17;;;;;;;1.73;0.80;;;;;;;;;;4999543;28;20241;-58
2022/07/02 11:23:45;;;;;;;1.20;1.10;;;;;;;;;;5017293;28;20225;-60
2022/07/02 11:26:17;;;;;;;1.13;0.90;;;;;;;;;;5003413;28;20211;-61
2022/07/02 11:28:45;;;;;;;1.47;0.73;;;;;;;;;;5017943;28;20231;-61
2022/07/02 11:31:13;;;;;;;2.37;0.60;;;;;;;;;;4998836;28;20215;-61
2022/07/02 11:33:50;;;;;;;1.07;1.00;;;;;;;;;;4999694;28;20257;-61
2022/07/02 11:36:25;;;;;;;2.33;0.80;;;;;;;;;;4999306;28;20234;-61
2022/07/02 11:38:53;;;;;;;1.63;1.20;;;;;;;;;;4999028;28;20741;-61
2022/07/02 11:41:22;;;;;;;2.90;1.10;;;;;;;;;;4998838;28;20236;-61
2022/07/02 11:43:51;;;;;;;1.47;0.70;;;;;;;;;;5006961;28;20242;-60
2022/07/02 11:46:24;;;;;;;2.73;1.70;;;;;;;;;;5018295;28;20228;-61
2022/07/02 11:48:54;;;;;;;2.20;0.90;;;;;;;;;;5018792;28;20216;-60
2022/07/02 11:51:22;;;;;;;2.10;0.90;;;;;;;;;;5004962;28;20248;-61
2022/07/02 11:53:57;;;;;;;3.23;0.90;;;;;;;;;;4998971;28;20264;-61
2022/07/02 11:56:26;;;;;;;1.30;0.80;;;;;;;;;;4998563;28;20231;-61
2022/07/02 11:58:54;;;;;;;2.23;1.23;;;;;;;;;;4998687;28;20240;-60
2022/07/02 12:01:23;;;;;;;1.70;0.80;;;;;;;;;;4998467;28;20247;-59
2022/07/02 12:03:52;;;;;;;2.67;2.23;;;;;;;;;;4998879;28;20263;-61
2022/07/02 12:06:21;;;;;;;1.27;0.90;;;;;;;;;;4998686;28;20286;-61
2022/07/02 12:08:51;;;;;;;3.43;0.90;;;;;;;;;;4998776;28;20249;-61
2022/07/02 12:11:20;;;;;;;0.93;0.87;;;;;;;;;;4998576;28;20213;-61
2022/07/02 12:13:48;;;;;;;1.40;1.10;;;;;;;;;;4998145;28;20642;-61
2022/07/02 12:16:17;;;;;;;1.30;1.13;;;;;;;;;;4998243;28;20270;-61
2022/07/02 12:18:45;;;;;;;1.13;1.00;;;;;;;;;;4999434;28;20221;-61
2022/07/02 12:21:14;;;;;;;1.10;0.90;;;;;;;;;;5010319;28;20206;-61
2022/07/02 12:23:45;;;;;;;1.07;0.70;;;;;;;;;;5015503;28;20689;-61
2022/07/02 12:26:19;;;;;;;2.30;0.93;;;;;;;;;;4999011;28;20204;-60
2022/07/02 12:31:42;;;;;;;1.40;0.80;;;;;;;;;;4997967;28;20241;-61
2022/07/02 12:34:11;;;;;;;1.63;1.23;;;;;;;;;;4998999;28;20234;-61
2022/07/02 12:36:49;;;;;;;2.23;0.90;;;;;;;;;;4998012;28;20232;-61
2022/07/02 12:39:19;;;;;;;1.53;1.00;;;;;;;;;;4996979;28;20238;-61
2022/07/02 12:41:46;;;;;;;0.73;0.70;;;;;;;;;;4997190;28;20247;-60
2022/07/02 12:44:18;;;;;;;0.73;0.73;;;;;;;;;;4997910;28;20229;-61
2022/07/02 12:46:48;;;;;;;1.83;0.80;;;;;;;;;;4997918;28;20250;-60
2022/07/02 12:49:17;;;;;;;1.80;1.13;;;;;;;;;;4997534;28;20645;-61
2022/07/02 12:52:03;;;;;;;1.10;1.00;;;;;;;;;;4996269;28;20213;-61
2022/07/02 12:54:36;;;;;;;1.70;1.00;;;;;;;;;;4996200;28;20322;-61
2022/07/02 12:57:17;;;;;;;2.23;1.00;;;;;;;;;;4995897;28;20256;-61
2022/07/02 12:59:46;;;;;;;3.63;1.17;;;;;;;;;;4996281;28;20264;-60
2022/07/02 13:02:16;;;;;;;1.50;0.90;;;;;;;;;;4996156;28;20263;-60
2022/07/02 13:04:44;;;;;;;0.83;0.83;;;;;;;;;;4999723;28;20220;-60
2022/07/02 13:07:14;;;;;;;2.77;1.20;;;;;;;;;;5010098;28;20241;-60
2022/07/02 13:09:44;;;;;;;1.00;0.80;;;;;;;;;;5004395;28;20205;-60
2022/07/02 13:12:13;;;;;;;0.80;0.80;;;;;;;;;;5015883;28;20200;-60
2022/07/02 13:14:41;;;;;;;2.03;1.00;;;;;;;;;;5011020;28;20263;-60
2022/07/02 13:17:11;;;;;;;1.47;1.07;;;;;;;;;;5005061;28;20221;-60
2022/07/02 13:19:59;;;;;;;1.20;1.00;;;;;;;;;;5006182;28;20215;-60
2022/07/02 13:22:27;;;;;;;1.70;1.20;;;;;;;;;;5002554;28;20238;-60
2022/07/02 13:24:57;;;;;;;0.90;0.90;;;;;;;;;;5007417;28;20260;-60
2022/07/02 13:27:25;;;;;;;1.13;0.90;;;;;;;;;;5010149;28;20680;-60
2022/07/02 13:29:54;;;;;;;2.07;1.00;;;;;;;;;;5011069;28;20269;-60
2022/07/02 13:32:22;;;;;;;2.70;0.80;;;;;;;;;;5001055;28;20207;-60
2022/07/02 13:34:50;;;;;;;1.03;0.70;;;;;;;;;;5002361;28;20227;-60
2022/07/02 13:37:18;;;;;;;1.90;0.90;;;;;;;;;;5001057;28;20230;-60
2022/07/02 13:39:46;;;;;;;2.50;0.90;;;;;;;;;;5001224;28;20214;-60
2022/07/02 13:42:15;;;;;;;1.57;0.90;;;;;;;;;;5001263;28;20244;-60
2022/07/02 13:44:43;;;;;;;4.67;1.30;;;;;;;;;;5001135;28;20235;-60
2022/07/02 13:47:11;;;;;;;1.33;0.93;;;;;;;;;;5001154;28;20239;-60
2022/07/02 13:49:39;;;;;;;1.57;1.10;;;;;;;;;;5001272;28;20247;-60
2022/07/02 13:52:12;;;;;;;0.77;0.73;;;;;;;;;;5001464;28;20243;-59
2022/07/02 13:54:40;;;;;;;1.20;0.90;;;;;;;;;;5001030;28;20607;-58
2022/07/02 13:57:08;;;;;;;3.03;0.90;;;;;;;;;;5000531;28;20764;-59
2022/07/02 13:59:38;;;;;;;0.93;0.87;;;;;;;;;;5000951;28;20670;-58
2022/07/02 14:02:06;;;;;;;0.90;0.90;;;;;;;;;;5000680;28;20207;-58
2022/07/02 14:04:34;;;;;;;2.03;1.50;;;;;;;;;;5000643;28;20315;-58
2022/07/02 14:07:02;;;;;;;3.30;0.93;;;;;;;;;;5001170;28;20236;-58
2022/07/02 14:09:35;;;;;;;1.00;0.90;;;;;;;;;;5000555;28;20572;-59
2022/07/02 14:12:04;;;;;;;2.10;0.77;;;;;;;;;;5000648;28;20213;-58
2022/07/02 14:14:33;;;;;;;1.10;0.93;;;;;;;;;;5000592;28;20284;-60
2022/07/02 14:17:02;;;;;;;1.37;1.27;;;;;;;;;;5000354;28;20260;-60
2022/07/02 14:19:30;;;;;;;1.53;0.80;;;;;;;;;;5000931;28;20204;-60
2022/07/02 14:21:58;;;;;;;3.27;1.10;;;;;;;;;;5000702;28;20215;-60
2022/07/02 14:24:26;;;;;;;0.77;0.77;;;;;;;;;;5019387;28;20275;-60
2022/07/02 14:26:54;;;;;;;2.13;0.90;;;;;;;;;;5003925;28;20238;-61
2022/07/02 14:29:22;;;;;;;1.10;0.90;;;;;;;;;;5014440;28;20233;-60
2022/07/02 14:31:51;;;;;;;1.43;1.20;;;;;;;;;;5000431;28;20279;-61
2022/07/02 14:34:21;;;;;;;2.17;1.00;;;;;;;;;;5000972;28;20225;-61
2022/07/02 14:36:49;;;;;;;0.97;0.90;;;;;;;;;;5000372;28;20228;-60
2022/07/02 14:39:17;;;;;;;1.30;1.17;;;;;;;;;;5000441;28;20212;-61
2022/07/02 14:41:46;;;;;;;5.30;3.60;;;;;;;;;;5000150;28;20270;-61
2022/07/02 14:44:14;;;;;;;1.15;0.85;;;;;;;;;;4999994;28;20293;-61
2022/07/02 14:46:42;;;;;;;1.97;0.87;;;;;;;;;;4999999;28;20243;-61
2022/07/02 14:49:10;;;;;;;0.88;0.88;;;;;;;;;;5000246;28;20271;-61
2022/07/02 14:51:40;;;;;;;0.70;0.70;;;;;;;;;;5000393;28;20208;-60
2022/07/02 14:54:08;;;;;;;3.50;1.10;;;;;;;;;;5000020;28;20771;-61
2022/07/02 14:56:36;;;;;;;1.87;0.93;;;;;;;;;;4999982;28;20271;-60
2022/07/02 14:59:09;;;;;;;1.33;0.70;;;;;;;;;;5000002;28;20268;-60
2022/07/02 15:01:38;;;;;;;0.87;0.87;;;;;;;;;;4999917;28;20236;-60
2022/07/02 15:04:07;;;;;;;2.27;1.00;;;;;;;;;;5000173;28;20229;-59